Time;durP1;ratioP1;P1;durP2;ratioP2;P2;SDS_P1;SDS_P2;PMS_P1;PMS_P2;Temp;Humidity;BMP_temperature;BMP_pressure;BME280_temperature;BME280_humidity;BME280_pressure;Samples;Min_cycle;Max_cycle;Signal;HPM_P1;HPM_P2
2021/11/09 00:02:17;;;;;;;29.20;26.63;;;2.80;93.50;;;;;;5060630;28;20694;-71
2021/11/09 00:04:49;;;;;;;27.63;25.50;;;2.80;93.10;;;;;;5047751;28;20234;-71
2021/11/09 00:07:25;;;;;;;30.55;27.70;;;2.80;93.10;;;;;;5049174;28;20215;-71
2021/11/09 00:09:58;;;;;;;30.25;27.10;;;2.80;93.00;;;;;;5047471;28;20207;-71
2021/11/09 00:12:28;;;;;;;29.58;26.98;;;2.70;93.70;;;;;;5059506;28;20224;-70
2021/11/09 00:14:57;;;;;;;29.80;27.40;;;2.80;94.50;;;;;;5046775;28;20203;-70
2021/11/09 00:17:25;;;;;;;30.00;27.02;;;2.80;94.40;;;;;;5051652;28;20196;-71
2021/11/09 00:19:52;;;;;;;29.55;27.10;;;2.90;93.30;;;;;;5062105;28;20202;-71
2021/11/09 00:22:19;;;;;;;28.30;25.70;;;2.80;92.90;;;;;;5058205;28;20266;-71
2021/11/09 00:24:46;;;;;;;27.80;25.30;;;2.70;93.10;;;;;;5051911;28;20223;-71
2021/11/09 00:27:14;;;;;;;29.20;26.50;;;2.70;93.60;;;;;;5051194;28;20276;-70
2021/11/09 00:29:41;;;;;;;28.70;26.25;;;2.70;93.40;;;;;;5049547;28;20760;-71
2021/11/09 00:32:09;;;;;;;28.52;26.15;;;2.70;93.60;;;;;;5057355;28;20675;-71
2021/11/09 00:34:37;;;;;;;27.60;25.50;;;2.60;93.70;;;;;;5050013;28;20408;-71
2021/11/09 00:37:04;;;;;;;29.30;26.85;;;2.60;95.70;;;;;;5048513;28;20924;-70
2021/11/09 00:39:31;;;;;;;29.38;26.77;;;2.60;95.00;;;;;;5041751;28;20204;-71
2021/11/09 00:41:58;;;;;;;29.85;27.08;;;2.50;94.40;;;;;;5058073;28;20253;-71
2021/11/09 00:44:27;;;;;;;30.05;27.52;;;2.40;94.70;;;;;;5046817;28;20217;-71
2021/11/09 00:46:55;;;;;;;153.27;41.35;;;2.50;94.50;;;;;;5048617;28;20285;-70
2021/11/09 00:49:22;;;;;;;33.00;28.50;;;2.50;96.60;;;;;;5059352;28;22098;-71
2021/11/09 00:51:51;;;;;;;29.08;26.02;;;2.50;96.10;;;;;;5049541;28;20318;-71
2021/11/09 00:54:19;;;;;;;30.52;27.75;;;2.50;96.00;;;;;;5046472;28;20194;-71
2021/11/09 00:56:47;;;;;;;29.25;26.40;;;2.50;95.90;;;;;;5047626;28;20235;-70
2021/11/09 00:59:14;;;;;;;30.52;27.92;;;2.50;96.00;;;;;;5059214;28;20198;-71
2021/11/09 01:01:42;;;;;;;28.27;25.85;;;2.50;95.90;;;;;;5060142;28;20736;-71
2021/11/09 01:04:10;;;;;;;30.50;27.88;;;2.50;95.50;;;;;;5047525;28;20889;-71
2021/11/09 01:06:37;;;;;;;30.13;27.58;;;2.50;95.40;;;;;;5047007;28;20313;-71
2021/11/09 01:09:06;;;;;;;41.05;29.38;;;2.60;95.10;;;;;;5037552;28;20535;-71
2021/11/09 01:11:33;;;;;;;28.98;26.50;;;2.60;95.20;;;;;;5049620;28;20208;-71
2021/11/09 01:14:01;;;;;;;29.90;27.05;;;2.70;95.40;;;;;;5046937;28;20216;-71
2021/11/09 01:16:28;;;;;;;29.20;26.50;;;2.50;94.70;;;;;;5048542;28;20275;-72
2021/11/09 01:18:59;;;;;;;29.67;26.90;;;2.60;94.90;;;;;;5047938;28;20204;-72
2021/11/09 01:21:26;;;;;;;28.23;25.42;;;2.70;94.60;;;;;;5040902;28;20202;-72
2021/11/09 01:23:55;;;;;;;26.55;24.50;;;2.70;94.70;;;;;;5050295;28;20676;-72
2021/11/09 01:26:23;;;;;;;29.00;26.73;;;2.70;94.40;;;;;;5055635;28;20219;-72
2021/11/09 01:28:54;;;;;;;27.98;25.77;;;2.60;94.10;;;;;;5050156;28;20208;-72
2021/11/09 01:31:22;;;;;;;29.75;27.10;;;2.70;93.90;;;;;;5063000;28;20680;-71
2021/11/09 01:33:50;;;;;;;27.77;25.48;;;2.70;94.10;;;;;;5054600;28;20216;-72
2021/11/09 01:36:19;;;;;;;27.75;25.83;;;2.80;93.60;;;;;;5059406;28;20542;-72
2021/11/09 01:38:48;;;;;;;28.83;26.38;;;2.80;93.00;;;;;;5048231;28;20639;-72
2021/11/09 01:41:15;;;;;;;28.90;26.35;;;2.90;93.10;;;;;;5042458;28;20286;-72
2021/11/09 01:43:43;;;;;;;28.88;26.23;;;3.00;92.80;;;;;;5057884;28;20230;-71
2021/11/09 01:46:11;;;;;;;27.35;25.13;;;3.00;92.70;;;;;;5052966;28;20224;-71
2021/11/09 01:48:40;;;;;;;28.25;26.00;;;3.00;92.80;;;;;;5054651;28;20193;-71
2021/11/09 01:51:10;;;;;;;28.90;25.85;;;3.00;92.90;;;;;;5052667;28;20203;-71
2021/11/09 01:53:40;;;;;;;30.20;27.33;;;3.00;92.80;;;;;;5053149;28;20237;-71
2021/11/09 01:56:11;;;;;;;29.77;27.45;;;3.00;94.20;;;;;;5043317;28;20203;-71
2021/11/09 01:58:38;;;;;;;146.98;37.63;;;3.00;93.50;;;;;;5049843;28;20196;-70
2021/11/09 02:01:08;;;;;;;28.95;26.55;;;3.10;92.60;;;;;;5051742;28;20243;-70
2021/11/09 02:03:36;;;;;;;30.23;27.70;;;3.00;92.50;;;;;;5048876;28;20877;-71
2021/11/09 02:06:04;;;;;;;28.77;26.10;;;3.00;92.60;;;;;;5050278;28;20228;-71
2021/11/09 02:08:30;;;;;;;28.17;25.92;;;2.90;93.10;;;;;;5050886;28;20222;-71
2021/11/09 02:10:59;;;;;;;28.58;26.10;;;2.90;93.30;;;;;;5041029;28;20205;-71
2021/11/09 02:13:27;;;;;;;193.63;41.00;;;2.90;93.40;;;;;;5052304;28;20323;-70
2021/11/09 02:15:54;;;;;;;629.45;84.82;;;3.00;96.10;;;;;;5050684;28;20199;-70
2021/11/09 02:18:22;;;;;;;28.58;26.02;;;3.10;99.00;;;;;;5051363;28;20656;-71
2021/11/09 02:20:56;;;;;;;27.92;25.40;;;3.20;97.60;;;;;;5060184;28;20579;-71
2021/11/09 02:23:23;;;;;;;27.02;24.70;;;3.30;95.50;;;;;;5052252;28;20228;-70
2021/11/09 02:25:50;;;;;;;29.65;27.00;;;3.30;94.70;;;;;;5050565;28;20755;-72
2021/11/09 02:28:17;;;;;;;27.55;24.95;;;3.20;94.40;;;;;;5049223;28;20202;-72
2021/11/09 02:30:45;;;;;;;27.77;25.60;;;3.30;94.20;;;;;;5049694;28;20208;-72
2021/11/09 02:33:12;;;;;;;28.92;26.27;;;3.30;93.60;;;;;;5063993;28;20305;-73
2021/11/09 02:35:39;;;;;;;28.80;26.35;;;3.30;92.90;;;;;;5053604;28;20235;-72
2021/11/09 02:38:08;;;;;;;29.73;27.08;;;3.30;92.50;;;;;;5050998;28;20221;-72
2021/11/09 02:40:35;;;;;;;418.33;58.28;;;3.30;92.80;;;;;;5046473;28;20195;-72
2021/11/09 02:43:05;;;;;;;27.88;25.05;;;3.30;96.30;;;;;;5049589;28;20224;-72
2021/11/09 02:45:39;;;;;;;29.70;26.75;;;3.30;95.20;;;;;;5040566;28;21047;-72
2021/11/09 02:48:09;;;;;;;27.48;25.38;;;3.40;94.40;;;;;;5052489;28;20231;-72
2021/11/09 02:50:39;;;;;;;29.08;26.45;;;3.40;93.90;;;;;;5049829;28;20279;-72
2021/11/09 02:53:11;;;;;;;29.27;26.73;;;3.50;93.50;;;;;;5049039;28;20634;-72
2021/11/09 02:55:40;;;;;;;30.08;27.13;;;3.60;93.30;;;;;;5046021;28;20196;-72
2021/11/09 02:58:15;;;;;;;125.55;35.33;;;3.60;92.90;;;;;;5052019;28;20251;-72
2021/11/09 03:00:53;;;;;;;28.92;26.65;;;3.60;96.50;;;;;;5045656;28;20193;-72
2021/11/09 03:03:24;;;;;;;28.60;25.92;;;3.70;94.40;;;;;;5057449;28;20258;-72
2021/11/09 03:05:59;;;;;;;28.10;25.80;;;3.70;93.00;;;;;;5041886;28;20248;-72
2021/11/09 03:08:31;;;;;;;28.17;25.58;;;3.60;92.60;;;;;;5048588;28;20206;-72
2021/11/09 03:11:00;;;;;;;28.15;25.75;;;3.60;93.10;;;;;;5037375;28;20288;-72
2021/11/09 03:13:26;;;;;;;29.02;26.40;;;3.70;93.20;;;;;;5044856;28;20551;-72
2021/11/09 03:15:57;;;;;;;28.75;26.45;;;3.70;93.00;;;;;;5043197;28;20947;-72
2021/11/09 03:18:26;;;;;;;335.75;56.65;;;3.70;93.50;;;;;;5045254;28;20204;-72
2021/11/09 03:20:58;;;;;;;269.35;51.75;;;3.70;93.70;;;;;;5059440;28;20674;-72
2021/11/09 03:40:12;;;;;;;29.10;26.65;;;3.70;93.30;;;;;;5049609;28;20207;-72
2021/11/09 03:45:26;;;;;;;29.60;27.25;;;3.50;93.50;;;;;;5047408;28;20195;-72
2021/11/09 03:47:56;;;;;;;30.55;27.65;;;3.50;93.70;;;;;;5065115;28;20200;-72
2021/11/09 03:50:26;;;;;;;28.92;26.23;;;3.40;94.00;;;;;;5055617;28;20212;-72
2021/11/09 03:52:57;;;;;;;29.77;27.17;;;3.40;94.10;;;;;;5052262;28;20641;-72
2021/11/09 03:55:36;;;;;;;30.27;27.73;;;3.40;94.20;;;;;;5056381;28;20200;-72
2021/11/09 03:58:07;;;;;;;30.13;27.65;;;3.40;94.30;;;;;;5048647;28;20291;-73
2021/11/09 04:00:42;;;;;;;29.85;27.13;;;3.40;94.40;;;;;;5052515;28;20207;-72
2021/11/09 04:03:16;;;;;;;31.30;28.27;;;3.30;94.50;;;;;;5037586;28;20304;-72
2021/11/09 04:05:46;;;;;;;107.30;34.03;;;3.40;94.40;;;;;;5047345;28;20641;-72
2021/11/09 04:08:18;;;;;;;33.90;31.08;;;3.30;95.30;;;;;;5048765;28;20227;-72
2021/11/09 04:10:54;;;;;;;31.67;28.55;;;3.30;95.60;;;;;;5039844;28;20615;-72
2021/11/09 04:13:30;;;;;;;32.22;29.42;;;3.20;95.30;;;;;;5052259;28;20215;-72
2021/11/09 04:16:17;;;;;;;31.98;29.40;;;3.20;95.10;;;;;;5047409;28;20203;-72
2021/11/09 04:18:53;;;;;;;32.78;29.55;;;3.30;94.50;;;;;;5037106;28;20207;-73
2021/11/09 04:21:36;;;;;;;30.85;28.15;;;3.10;94.40;;;;;;5054274;28;20210;-72
2021/11/09 04:24:24;;;;;;;31.73;29.17;;;3.10;94.40;;;;;;5047643;28;20203;-73
2021/11/09 04:27:06;;;;;;;31.90;29.48;;;3.10;94.00;;;;;;5047880;28;20330;-72
2021/11/09 04:32:35;;;;;;;33.47;30.25;;;2.80;94.70;;;;;;4994600;28;20214;-72
2021/11/09 05:08:49;;;;;;;33.10;30.05;;;2.50;95.10;;;;;;5055725;28;20206;-72
2021/11/09 05:11:17;;;;;;;33.40;30.30;;;2.40;95.20;;;;;;5054565;28;20200;-73
2021/11/09 05:13:44;;;;;;;34.15;31.38;;;2.30;95.30;;;;;;5059192;28;20589;-73
2021/11/09 05:16:12;;;;;;;30.38;28.15;;;2.40;94.80;;;;;;5052609;28;20198;-72
2021/11/09 05:18:39;;;;;;;32.85;30.15;;;2.40;94.50;;;;;;5049484;28;20671;-72
2021/11/09 05:21:07;;;;;;;1251.43;180.90;;;2.30;94.70;;;;;;5050595;28;20211;-72
2021/11/09 05:23:33;;;;;;;31.08;28.52;;;2.30;95.60;;;;;;5049189;28;20261;-72
2021/11/09 05:26:00;;;;;;;33.80;30.88;;;2.30;96.20;;;;;;5056974;28;20204;-72
2021/11/09 05:28:28;;;;;;;30.73;27.83;;;2.30;96.00;;;;;;5060205;28;20200;-72
2021/11/09 05:30:55;;;;;;;32.88;30.30;;;2.30;95.00;;;;;;5061993;28;20257;-72
2021/11/09 05:33:26;;;;;;;32.10;29.58;;;2.40;94.60;;;;;;5053577;28;20217;-72
2021/11/09 05:35:56;;;;;;;32.45;29.63;;;2.40;94.20;;;;;;5050238;28;20663;-72
2021/11/09 05:38:28;;;;;;;30.35;27.73;;;2.30;93.90;;;;;;5063215;28;20197;-72
2021/11/09 05:40:58;;;;;;;32.28;29.42;;;2.30;94.00;;;;;;5063918;28;20251;-71
2021/11/09 05:43:25;;;;;;;34.13;31.02;;;2.30;94.10;;;;;;5051741;28;20252;-72
2021/11/09 05:45:53;;;;;;;32.65;29.95;;;2.20;94.00;;;;;;5050016;28;20290;-70
2021/11/09 05:48:20;;;;;;;30.95;28.70;;;2.20;94.20;;;;;;5058504;28;20190;-70
2021/11/09 05:50:49;;;;;;;33.42;30.40;;;2.10;94.10;;;;;;5049304;28;20205;-72
2021/11/09 05:53:16;;;;;;;55.72;31.67;;;2.00;94.60;;;;;;5052969;28;20236;-71
2021/11/09 05:55:43;;;;;;;32.47;29.50;;;2.10;94.60;;;;;;5055261;28;20646;-72
2021/11/09 05:58:11;;;;;;;31.35;28.58;;;2.00;94.90;;;;;;5047370;28;20195;-71
2021/11/09 06:00:38;;;;;;;32.85;29.75;;;2.10;94.70;;;;;;5047698;28;20226;-71
2021/11/09 06:03:39;;;;;;;33.95;31.50;;;2.10;94.50;;;;;;5048973;28;20223;-70
2021/11/09 06:06:07;;;;;;;34.85;31.95;;;2.10;94.10;;;;;;5042913;28;20210;-70
2021/11/09 06:08:34;;;;;;;221.52;56.20;;;2.10;94.10;;;;;;5060150;28;20207;-69
2021/11/09 06:11:01;;;;;;;32.67;29.45;;;2.00;94.50;;;;;;5058908;28;20686;-70
2021/11/09 06:13:28;;;;;;;32.22;29.50;;;1.90;97.90;;;;;;5045016;28;20270;-69
2021/11/09 06:15:55;;;;;;;32.03;28.98;;;1.90;96.90;;;;;;5050758;28;20207;-70
2021/11/09 06:18:22;;;;;;;32.30;29.45;;;2.00;96.10;;;;;;5048147;28;20201;-70
2021/11/09 06:20:49;;;;;;;34.17;30.95;;;2.00;95.60;;;;;;5050597;28;20200;-70
2021/11/09 06:23:18;;;;;;;32.67;29.98;;;2.00;95.40;;;;;;5048310;28;20221;-72
2021/11/09 06:25:46;;;;;;;32.42;29.77;;;2.00;95.10;;;;;;5045666;28;20206;-72
2021/11/09 06:28:16;;;;;;;31.33;28.65;;;2.00;95.20;;;;;;5051237;28;20226;-71
2021/11/09 06:30:44;;;;;;;30.75;28.38;;;1.90;95.50;;;;;;5049901;28;20206;-71
2021/11/09 06:33:11;;;;;;;33.63;31.02;;;2.00;95.50;;;;;;5047981;28;20594;-70
2021/11/09 06:35:38;;;;;;;32.80;30.20;;;2.10;94.70;;;;;;5049869;28;20224;-73
2021/11/09 06:38:05;;;;;;;32.22;29.83;;;2.00;94.70;;;;;;5055699;28;20197;-72
2021/11/09 06:40:33;;;;;;;33.20;30.20;;;2.10;95.00;;;;;;5050752;28;20709;-72
2021/11/09 06:43:01;;;;;;;33.83;31.02;;;2.10;94.50;;;;;;5056324;28;20231;-73
2021/11/09 06:45:28;;;;;;;32.00;29.40;;;2.10;94.20;;;;;;5043012;28;20198;-72
2021/11/09 06:47:55;;;;;;;31.15;28.55;;;2.10;94.30;;;;;;5044640;28;20230;-73
2021/11/09 06:50:24;;;;;;;30.67;28.38;;;2.20;93.70;;;;;;5047837;28;20298;-71
2021/11/09 06:52:51;;;;;;;31.77;29.27;;;2.20;93.40;;;;;;5047794;28;20594;-73
2021/11/09 06:55:18;;;;;;;31.23;28.52;;;2.20;93.60;;;;;;5045716;28;20201;-71
2021/11/09 06:57:47;;;;;;;32.88;30.25;;;2.10;93.80;;;;;;5047572;28;20194;-73
2021/11/09 07:00:17;;;;;;;31.75;29.35;;;2.10;93.90;;;;;;5039231;28;20205;-73
2021/11/09 07:02:44;;;;;;;30.95;28.42;;;2.20;93.80;;;;;;5048750;28;20271;-72
2021/11/09 07:05:12;;;;;;;31.63;28.98;;;2.10;93.80;;;;;;5037544;28;20661;-74
2021/11/09 07:07:42;;;;;;;31.05;28.45;;;2.10;94.00;;;;;;5049907;28;20226;-72
2021/11/09 07:10:11;;;;;;;31.80;28.70;;;2.30;93.50;;;;;;5047845;28;20460;-73
2021/11/09 07:12:38;;;;;;;30.33;27.80;;;2.40;93.20;;;;;;5048849;28;20469;-73
2021/11/09 07:15:08;;;;;;;31.27;28.90;;;2.30;93.00;;;;;;5048011;28;20209;-73
2021/11/09 07:17:39;;;;;;;30.48;27.95;;;2.40;93.20;;;;;;5048085;28;20199;-72
2021/11/09 07:20:08;;;;;;;31.80;28.85;;;2.40;93.10;;;;;;5048593;28;20217;-72
2021/11/09 07:22:35;;;;;;;30.85;28.50;;;2.40;93.00;;;;;;5045324;28;20305;-72
2021/11/09 07:25:02;;;;;;;29.50;27.25;;;2.50;92.80;;;;;;5045140;28;20287;-71
2021/11/09 07:27:31;;;;;;;34.22;31.10;;;2.70;92.40;;;;;;5049617;28;20221;-72
2021/11/09 07:29:59;;;;;;;30.40;28.15;;;2.70;92.20;;;;;;5045803;28;20202;-71
2021/11/09 07:32:27;;;;;;;31.85;29.10;;;2.70;92.20;;;;;;5061500;28;20247;-72
2021/11/09 07:34:54;;;;;;;29.90;27.40;;;2.70;92.20;;;;;;5041212;28;20235;-73
2021/11/09 07:37:22;;;;;;;29.02;26.23;;;2.70;92.40;;;;;;5048206;28;20279;-71
2021/11/09 07:39:49;;;;;;;29.58;27.02;;;2.80;92.50;;;;;;5047002;28;20304;-72
2021/11/09 07:42:17;;;;;;;29.67;27.35;;;2.90;92.30;;;;;;5048818;28;20220;-72
2021/11/09 07:44:44;;;;;;;30.10;27.60;;;2.90;92.20;;;;;;5041895;28;20295;-73
2021/11/09 07:47:11;;;;;;;30.63;28.17;;;2.90;92.00;;;;;;5047963;28;20219;-74
2021/11/09 07:49:41;;;;;;;28.75;25.90;;;3.00;92.00;;;;;;5045735;28;20192;-70
2021/11/09 07:52:10;;;;;;;30.92;28.15;;;3.10;91.80;;;;;;5047402;28;20259;-70
2021/11/09 07:54:39;;;;;;;31.05;28.73;;;3.20;91.80;;;;;;5044730;28;20535;-71
2021/11/09 07:57:11;;;;;;;29.30;26.85;;;3.30;91.60;;;;;;5048384;28;20291;-72
2021/11/09 07:59:42;;;;;;;31.73;29.27;;;3.40;91.70;;;;;;5051040;28;20200;-71
2021/11/09 08:02:12;;;;;;;32.05;28.17;;;3.50;91.50;;;;;;5042155;28;20644;-71
2021/11/09 08:04:46;;;;;;;29.02;26.75;;;3.60;91.50;;;;;;5046098;28;20199;-71
2021/11/09 08:07:17;;;;;;;32.00;28.92;;;3.70;91.80;;;;;;5046593;28;20219;-72
2021/11/09 08:09:45;;;;;;;28.77;26.48;;;3.90;91.70;;;;;;5047628;28;20247;-71
2021/11/09 08:12:12;;;;;;;28.75;26.30;;;4.00;91.50;;;;;;5047804;28;20808;-73
2021/11/09 08:14:39;;;;;;;31.30;28.98;;;4.10;91.20;;;;;;5052183;28;20197;-72
2021/11/09 08:17:10;;;;;;;28.83;26.20;;;4.20;91.00;;;;;;5051724;28;20199;-73
2021/11/09 08:19:37;;;;;;;29.95;27.63;;;4.30;91.00;;;;;;5039498;28;20328;-72
2021/11/09 08:22:05;;;;;;;29.10;26.70;;;4.30;90.50;;;;;;5048402;28;20270;-71
2021/11/09 08:24:32;;;;;;;30.85;28.25;;;4.50;90.50;;;;;;5045976;28;20287;-71
2021/11/09 08:27:04;;;;;;;30.73;28.02;;;4.60;90.10;;;;;;5052757;28;20296;-71
2021/11/09 08:29:31;;;;;;;30.63;27.83;;;4.60;89.80;;;;;;5043351;28;20192;-71
2021/11/09 08:32:00;;;;;;;31.15;28.15;;;4.70;89.70;;;;;;5046800;28;20248;-72
2021/11/09 08:34:30;;;;;;;29.35;26.90;;;4.80;89.60;;;;;;5039726;28;20558;-71
2021/11/09 08:36:59;;;;;;;30.98;28.50;;;4.90;89.30;;;;;;5048103;28;20200;-73
2021/11/09 08:39:33;;;;;;;31.35;28.40;;;5.00;88.90;;;;;;5044203;28;20197;-72
2021/11/09 08:42:11;;;;;;;31.75;28.92;;;5.10;88.60;;;;;;5048794;28;20303;-73
2021/11/09 08:44:41;;;;;;;32.17;29.60;;;5.20;88.40;;;;;;5042371;28;20313;-73
2021/11/09 08:47:11;;;;;;;32.90;29.95;;;5.30;87.90;;;;;;5047326;28;20835;-73
2021/11/09 08:49:38;;;;;;;33.15;30.35;;;5.40;87.80;;;;;;5047206;28;20270;-72
2021/11/09 08:52:11;;;;;;;30.98;28.17;;;5.50;87.50;;;;;;5047495;28;20217;-73
2021/11/09 08:54:49;;;;;;;30.85;28.15;;;5.50;87.10;;;;;;5038551;28;20200;-73
2021/11/09 09:05:34;;;;;;;30.80;28.17;;;5.80;86.10;;;;;;5047654;28;20247;-72
2021/11/09 09:08:01;;;;;;;31.92;29.20;;;5.90;85.90;;;;;;5042286;28;20581;-72
2021/11/09 09:10:29;;;;;;;32.83;30.10;;;6.00;85.90;;;;;;5044260;28;20193;-73
2021/11/09 09:12:56;;;;;;;33.40;30.45;;;6.10;85.50;;;;;;5045166;28;20217;-72
2021/11/09 09:15:24;;;;;;;32.72;30.17;;;6.20;85.10;;;;;;5046819;28;20196;-73
2021/11/09 09:17:51;;;;;;;33.05;30.30;;;6.20;84.80;;;;;;5042661;28;20225;-73
2021/11/09 09:20:21;;;;;;;32.10;29.48;;;6.20;84.60;;;;;;5041767;28;20607;-72
2021/11/09 09:23:01;;;;;;;30.67;28.20;;;6.30;84.40;;;;;;5043956;28;20224;-73
2021/11/09 09:25:41;;;;;;;31.90;29.15;;;6.50;84.20;;;;;;5040402;28;20566;-73
2021/11/09 09:53:05;;;;;;;31.52;28.80;;;7.20;79.80;;;;;;5041244;28;20220;-73
2021/11/09 09:55:39;;;;;;;32.70;30.00;;;7.20;79.90;;;;;;5042928;28;20226;-72
2021/11/09 09:58:10;;;;;;;33.28;30.85;;;7.30;79.70;;;;;;5032662;28;20217;-73
2021/11/09 10:00:38;;;;;;;33.65;31.10;;;7.40;79.50;;;;;;5042788;28;20291;-73
2021/11/09 10:03:06;;;;;;;32.72;29.90;;;7.40;78.30;;;;;;5046319;28;20311;-73
2021/11/09 10:05:37;;;;;;;31.50;28.92;;;7.60;76.70;;;;;;5056140;28;20207;-73
2021/11/09 10:08:11;;;;;;;31.75;29.45;;;7.50;76.50;;;;;;5043129;28;20229;-73
2021/11/09 10:10:38;;;;;;;32.25;29.95;;;7.50;76.90;;;;;;5048276;28;20560;-72
2021/11/09 10:13:09;;;;;;;33.15;30.70;;;7.60;76.10;;;;;;5044616;28;20216;-74
2021/11/09 10:15:38;;;;;;;31.08;28.48;;;7.70;76.10;;;;;;5049275;28;20204;-72
2021/11/09 10:18:07;;;;;;;30.80;28.52;;;7.90;76.10;;;;;;5052665;28;20207;-76
2021/11/09 10:20:37;;;;;;;29.33;27.42;;;8.10;73.90;;;;;;5057760;28;20291;-73
2021/11/09 10:23:06;;;;;;;29.17;26.73;;;8.10;74.60;;;;;;5047128;28;20251;-73
2021/11/09 10:25:35;;;;;;;29.98;27.77;;;8.20;73.90;;;;;;5045214;28;20284;-74
2021/11/09 10:28:06;;;;;;;29.33;26.95;;;8.20;73.60;;;;;;5045895;28;20221;-73
2021/11/09 10:30:37;;;;;;;27.83;26.02;;;8.30;74.00;;;;;;5045777;28;20216;-72
2021/11/09 10:33:05;;;;;;;27.55;25.55;;;8.40;72.90;;;;;;5051165;28;20689;-73
2021/11/09 10:35:32;;;;;;;29.98;27.85;;;8.50;73.10;;;;;;5056415;28;20683;-73
2021/11/09 10:38:03;;;;;;;26.50;24.70;;;8.60;72.90;;;;;;5033937;28;20195;-73
2021/11/09 10:40:32;;;;;;;28.55;26.42;;;8.60;71.90;;;;;;5049210;28;20193;-73
2021/11/09 10:43:11;;;;;;;27.33;25.23;;;8.60;71.80;;;;;;5045112;28;20224;-72
2021/11/09 10:45:41;;;;;;;25.60;23.90;;;8.80;70.70;;;;;;5044180;28;20250;-72
2021/11/09 10:48:11;;;;;;;26.98;25.10;;;8.90;70.10;;;;;;5044185;28;20222;-73
2021/11/09 10:50:43;;;;;;;28.90;26.67;;;9.00;69.90;;;;;;5042067;28;20281;-73
2021/11/09 10:53:14;;;;;;;27.25;25.65;;;8.90;70.10;;;;;;5046390;28;20217;-72
2021/11/09 10:55:54;;;;;;;26.95;25.27;;;8.80;71.80;;;;;;5045368;28;20288;-73
2021/11/09 11:04:11;;;;;;;27.75;25.80;;;9.30;70.50;;;;;;5004237;28;20682;-72
2021/11/09 11:06:39;;;;;;;28.57;26.27;;;9.30;69.90;;;;;;5030101;28;20215;-72
2021/11/09 11:09:19;;;;;;;27.40;25.60;;;9.40;69.80;;;;;;5047367;28;20478;-71
2021/11/09 11:11:49;;;;;;;26.33;24.57;;;9.40;69.60;;;;;;5039208;28;20462;-70
2021/11/09 11:14:20;;;;;;;26.80;25.10;;;9.60;68.90;;;;;;5048899;28;20459;-72
2021/11/09 11:16:51;;;;;;;27.90;25.53;;;9.70;68.20;;;;;;5045888;28;20470;-72
2021/11/09 11:19:20;;;;;;;28.50;26.60;;;9.80;68.10;;;;;;5048099;28;20458;-72
2021/11/09 11:21:48;;;;;;;28.27;26.40;;;9.70;68.10;;;;;;5042112;28;20546;-72
2021/11/09 11:24:16;;;;;;;30.70;28.90;;;9.80;68.10;;;;;;5041529;28;20469;-73
2021/11/09 11:26:46;;;;;;;28.80;26.53;;;10.00;67.40;;;;;;5047728;28;20486;-72
2021/11/09 11:29:17;;;;;;;28.53;26.50;;;10.10;67.40;;;;;;5043357;28;20470;-71
2021/11/09 11:31:45;;;;;;;27.60;25.83;;;10.20;67.00;;;;;;5050045;28;20458;-74
2021/11/09 11:34:13;;;;;;;26.13;24.40;;;10.20;66.80;;;;;;5046533;28;20482;-74
2021/11/09 11:36:41;;;;;;;28.43;26.57;;;10.20;66.30;;;;;;5049272;28;20467;-74
2021/11/09 11:39:11;;;;;;;28.97;26.87;;;10.20;66.40;;;;;;5042137;28;20940;-72
2021/11/09 11:41:41;;;;;;;28.93;26.77;;;10.20;66.50;;;;;;5055708;28;20455;-74
2021/11/09 11:44:10;;;;;;;29.60;27.70;;;10.40;65.90;;;;;;5043535;28;20459;-75
2021/11/09 11:46:54;;;;;;;27.67;25.67;;;10.40;66.80;;;;;;5052280;28;20473;-73
2021/11/09 11:49:28;;;;;;;27.87;26.03;;;10.70;65.30;;;;;;5051023;28;20528;-72
2021/11/09 11:52:14;;;;;;;35.60;33.10;;;10.70;64.90;;;;;;5049592;28;20476;-73
2021/11/09 11:54:48;;;;;;;27.57;25.77;;;10.60;66.90;;;;;;5035414;28;20512;-74
2021/11/09 11:57:46;;;;;;;29.13;26.60;;;10.60;65.60;;;;;;5044477;28;20544;-74
2021/11/09 12:00:47;;;;;;;29.73;27.43;;;10.50;65.70;;;;;;5018206;28;20991;-73
2021/11/09 12:03:37;;;;;;;29.60;27.67;;;10.50;65.80;;;;;;5045001;28;20474;-73
2021/11/09 12:06:25;;;;;;;27.63;25.73;;;10.60;65.50;;;;;;5046744;28;20470;-74
2021/11/09 12:08:54;;;;;;;26.50;24.60;;;10.70;66.00;;;;;;5041531;28;20482;-75
2021/11/09 12:11:46;;;;;;;27.33;25.63;;;10.90;64.00;;;;;;5046093;28;20467;-71
2021/11/09 12:14:15;;;;;;;26.13;24.50;;;11.10;63.40;;;;;;5041736;28;20455;-72
2021/11/09 12:16:52;;;;;;;28.77;26.77;;;11.20;62.50;;;;;;5047295;28;20559;-72
2021/11/09 12:19:58;;;;;;;27.60;26.17;;;11.00;62.40;;;;;;5049593;28;20736;-71
2021/11/09 12:22:38;;;;;;;26.90;24.93;;;11.00;62.60;;;;;;5047917;28;20549;-74
2021/11/09 12:25:06;;;;;;;27.10;25.40;;;11.10;62.00;;;;;;5047289;28;20466;-73
2021/11/09 12:28:05;;;;;;;27.90;25.83;;;11.10;62.40;;;;;;5045093;28;20540;-74
2021/11/09 12:30:50;;;;;;;28.60;26.70;;;11.20;63.10;;;;;;5038769;28;20448;-73
2021/11/09 12:33:19;;;;;;;29.30;27.40;;;11.30;62.50;;;;;;5051050;28;21022;-74
2021/11/09 12:35:49;;;;;;;27.10;25.50;;;11.30;62.50;;;;;;5047722;28;21199;-72
2021/11/09 12:38:20;;;;;;;28.50;26.40;;;11.40;62.40;;;;;;5046196;28;20542;-73
2021/11/09 12:40:50;;;;;;;26.50;24.90;;;11.40;63.00;;;;;;5044963;28;20447;-76
2021/11/09 12:43:43;;;;;;;27.67;26.00;;;11.50;62.30;;;;;;5045714;28;20475;-73
2021/11/09 12:46:16;;;;;;;28.83;26.77;;;11.50;61.90;;;;;;5040123;28;20538;-71
2021/11/09 12:48:49;;;;;;;27.20;25.60;;;11.40;61.50;;;;;;5046586;28;20566;-72
2021/11/09 12:51:18;;;;;;;26.80;25.20;;;11.50;61.40;;;;;;5051502;28;20455;-71
2021/11/09 12:53:52;;;;;;;25.10;23.40;;;11.60;61.60;;;;;;5048509;28;20942;-72
2021/11/09 12:56:24;;;;;;;27.20;25.40;;;11.50;60.80;;;;;;5054406;28;20842;-72
2021/11/09 12:58:56;;;;;;;26.80;25.10;;;11.50;61.00;;;;;;5047450;28;20537;-73
2021/11/09 13:01:42;;;;;;;26.13;24.40;;;11.60;61.20;;;;;;5048065;28;20470;-73
2021/11/09 13:04:19;;;;;;;25.70;23.90;;;11.50;61.10;;;;;;5043711;28;20557;-72
2021/11/09 13:07:03;;;;;;;28.13;25.97;;;11.50;61.00;;;;;;5050903;28;20447;-72
2021/11/09 13:09:35;;;;;;;28.90;27.00;;;11.60;61.30;;;;;;5050497;28;20477;-74
2021/11/09 13:12:05;;;;;;;25.03;23.37;;;11.50;60.50;;;;;;5047946;28;20477;-72
2021/11/09 13:14:39;;;;;;;25.90;24.20;;;11.50;60.60;;;;;;5053230;28;20905;-74
2021/11/09 13:17:19;;;;;;;26.33;24.73;;;11.60;60.50;;;;;;5052369;28;20481;-73
2021/11/09 13:19:54;;;;;;;26.60;24.90;;;11.50;60.40;;;;;;5050242;28;20459;-72
2021/11/09 13:22:28;;;;;;;25.87;24.10;;;11.50;60.20;;;;;;5048039;28;21082;-72
2021/11/09 13:25:00;;;;;;;27.40;25.20;;;11.60;60.00;;;;;;5050254;28;20823;-73
2021/11/09 13:27:36;;;;;;;25.77;24.07;;;11.50;60.80;;;;;;5047866;28;20465;-72
2021/11/09 13:30:13;;;;;;;27.17;25.07;;;11.60;60.40;;;;;;5052018;28;21207;-72
2021/11/09 13:32:41;;;;;;;25.90;24.13;;;11.70;60.20;;;;;;5049844;28;20513;-73
2021/11/09 13:35:24;;;;;;;28.23;26.53;;;11.50;60.00;;;;;;5050997;28;21128;-74
2021/11/09 13:37:52;;;;;;;26.13;24.50;;;11.50;60.40;;;;;;5048534;28;21118;-71
2021/11/09 13:40:21;;;;;;;26.43;24.83;;;11.50;60.20;;;;;;5061395;28;20525;-73
2021/11/09 13:43:07;;;;;;;25.23;23.50;;;11.50;60.20;;;;;;5053895;28;20554;-74
2021/11/09 13:45:35;;;;;;;27.13;25.60;;;11.60;60.10;;;;;;5054803;28;20498;-74
2021/11/09 13:48:12;;;;;;;30.57;27.90;;;11.60;59.50;;;;;;5047968;28;20977;-74
2021/11/09 13:50:41;;;;;;;27.80;26.00;;;11.60;60.10;;;;;;5053018;28;21004;-74
2021/11/09 13:53:08;;;;;;;28.60;27.00;;;11.50;60.30;;;;;;5053738;28;20504;-72
2021/11/09 13:55:39;;;;;;;28.80;26.80;;;11.50;60.00;;;;;;5060919;28;20451;-72
2021/11/09 13:58:08;;;;;;;26.70;25.10;;;11.40;60.10;;;;;;5050251;28;20465;-72
2021/11/09 14:00:44;;;;;;;28.70;27.00;;;11.30;59.70;;;;;;5052761;28;20477;-72
2021/11/09 14:03:20;;;;;;;27.73;25.80;;;11.40;59.30;;;;;;5046483;28;20478;-73
2021/11/09 14:08:50;;;;;;;26.50;24.60;;;11.30;59.50;;;;;;5048831;28;20461;-72
2021/11/09 14:14:20;;;;;;;25.80;24.17;;;11.30;60.10;;;;;;5025466;28;20454;-72
2021/11/09 14:16:51;;;;;;;25.70;24.00;;;11.30;60.20;;;;;;5050793;28;20451;-72
2021/11/09 14:19:28;;;;;;;28.47;26.30;;;11.30;60.20;;;;;;5044917;28;20546;-72
2021/11/09 14:21:56;;;;;;;25.47;23.90;;;11.30;59.60;;;;;;5041272;28;20454;-73
2021/11/09 14:24:24;;;;;;;25.90;24.27;;;11.20;59.80;;;;;;5046422;28;20790;-72
2021/11/09 14:27:06;;;;;;;26.10;24.37;;;11.30;59.90;;;;;;5050381;28;20845;-72
2021/11/09 14:29:36;;;;;;;27.30;25.40;;;11.20;60.00;;;;;;5046470;28;22642;-72
2021/11/09 14:32:09;;;;;;;28.23;26.63;;;11.20;60.70;;;;;;5050032;28;20558;-72
2021/11/09 14:34:37;;;;;;;27.57;25.60;;;11.00;60.50;;;;;;5047430;28;20458;-73